createdAt,value
2022-08-10T00:00:58.841Z,1023.19
2022-08-10T00:01:58.849Z,1023.15
2022-08-10T00:02:58.781Z,1023.15
2022-08-10T00:03:58.721Z,1023.16
2022-08-10T00:04:58.681Z,1023.18
2022-08-10T00:05:58.646Z,1023.16
2022-08-10T00:06:58.600Z,1023.18
2022-08-10T00:07:58.555Z,1023.12
2022-08-10T00:08:58.521Z,1023.15
2022-08-10T00:09:58.800Z,1023.16
2022-08-10T00:10:58.426Z,1023.12
2022-08-10T00:11:58.406Z,1023.12
2022-08-10T00:12:58.517Z,1023.13
2022-08-10T00:13:58.310Z,1023.12
2022-08-10T00:14:58.269Z,1023.10
2022-08-10T00:15:58.226Z,1023.10
2022-08-10T00:16:58.188Z,1023.13
2022-08-10T00:17:58.143Z,1023.11
2022-08-10T00:18:58.106Z,1023.13
2022-08-10T00:20:03.455Z,1023.12
2022-08-10T00:20:58.024Z,1023.12
2022-08-10T00:21:58.000Z,1023.14
2022-08-10T00:22:58.205Z,1023.11
2022-08-10T00:23:57.892Z,1023.10
2022-08-10T00:24:57.858Z,1023.09
2022-08-10T00:25:57.809Z,1023.12
2022-08-10T00:27:47.054Z,1023.08
2022-08-10T00:28:03.661Z,1023.08
2022-08-10T00:28:57.688Z,1023.06
2022-08-10T00:29:57.738Z,1023.04
2022-08-10T00:30:57.609Z,1023.05
2022-08-10T00:31:58.950Z,1023.02
2022-08-10T00:32:57.541Z,1023.01
2022-08-10T00:33:57.480Z,1023.00
2022-08-10T00:34:57.461Z,1022.97
2022-08-10T00:35:57.418Z,1022.95
2022-08-10T00:36:57.360Z,1023.00
2022-08-10T00:37:58.015Z,1022.95
2022-08-10T00:38:57.273Z,1022.97
2022-08-10T00:39:57.262Z,1022.96
2022-08-10T00:40:57.192Z,1022.97
2022-08-10T00:42:02.162Z,1022.95
2022-08-10T00:42:57.115Z,1023.00
2022-08-10T00:43:57.074Z,1022.99
2022-08-10T00:44:57.024Z,1023.04
2022-08-10T00:45:59.114Z,1023.03
2022-08-10T00:46:56.947Z,1023.06
2022-08-10T00:47:56.901Z,1023.06
2022-08-10T00:49:00.395Z,1023.08
2022-08-10T00:49:56.821Z,1023.05
2022-08-10T00:50:56.783Z,1023.08
2022-08-10T00:51:56.737Z,1023.02
2022-08-10T00:52:56.700Z,1023.04
2022-08-10T00:53:56.658Z,1023.03
2022-08-10T00:54:56.617Z,1023.02
2022-08-10T00:57:16.969Z,1023.03
2022-08-10T00:57:17.999Z,1023.00
2022-08-10T00:57:56.496Z,1023.02
2022-08-10T00:58:56.448Z,1022.98
2022-08-10T00:59:59.076Z,1023.02
2022-08-10T01:00:56.615Z,1023.02
2022-08-10T01:02:09.729Z,1023.01
2022-08-10T01:02:56.360Z,1023.01
2022-08-10T01:04:57.484Z,1022.99
2022-08-10T01:05:00.905Z,1022.99
2022-08-10T01:05:56.221Z,1022.95
2022-08-10T01:06:56.115Z,1022.92
2022-08-10T01:07:56.104Z,1022.95
2022-08-10T01:08:56.040Z,1022.96
2022-08-10T01:09:57.414Z,1022.97
2022-08-10T01:10:55.954Z,1022.97
2022-08-10T01:12:37.352Z,1022.94
2022-08-10T01:12:55.864Z,1022.95
2022-08-10T01:13:55.824Z,1022.95
2022-08-10T01:14:55.784Z,1022.96
2022-08-10T01:15:55.753Z,1022.95
2022-08-10T01:16:55.703Z,1022.94
2022-08-10T01:17:55.661Z,1022.90
2022-08-10T01:18:55.624Z,1022.88
2022-08-10T01:19:55.582Z,1022.84
2022-08-10T01:20:55.532Z,1022.86
2022-08-10T01:21:57.025Z,1022.83
2022-08-10T01:22:55.471Z,1022.79
2022-08-10T01:23:55.432Z,1022.78
2022-08-10T01:24:55.395Z,1022.79
2022-08-10T01:26:11.392Z,1022.76
2022-08-10T01:26:55.286Z,1022.79
2022-08-10T01:27:55.260Z,1022.77
2022-08-10T01:28:55.197Z,1022.73
2022-08-10T01:29:55.189Z,1022.74
2022-08-10T01:30:55.115Z,1022.74
2022-08-10T01:31:55.088Z,1022.70
2022-08-10T01:32:55.043Z,1022.66
2022-08-10T01:33:59.070Z,1022.69
2022-08-10T01:34:54.948Z,1022.64
2022-08-10T01:35:54.915Z,1022.60
2022-08-10T01:36:54.879Z,1022.64
2022-08-10T01:37:54.834Z,1022.64
2022-08-10T01:38:54.788Z,1022.64
2022-08-10T01:39:55.150Z,1022.65
2022-08-10T01:40:54.724Z,1022.68
2022-08-10T01:41:54.664Z,1022.73
2022-08-10T01:42:54.627Z,1022.70
2022-08-10T01:43:54.578Z,1022.69
2022-08-10T01:44:54.540Z,1022.73
2022-08-10T01:45:54.493Z,1022.70
2022-08-10T01:46:56.900Z,1022.69
2022-08-10T01:47:54.445Z,1022.74
2022-08-10T01:48:54.380Z,1022.73
2022-08-10T01:49:54.336Z,1022.76
2022-08-10T01:51:00.248Z,1022.71
2022-08-10T01:51:54.254Z,1022.71
2022-08-10T01:52:54.235Z,1022.73
2022-08-10T01:53:54.171Z,1022.73
2022-08-10T01:54:54.144Z,1022.72
2022-08-10T01:55:54.079Z,1022.70
2022-08-10T01:56:54.037Z,1022.73
2022-08-10T01:57:53.997Z,1022.73
2022-08-10T01:58:53.950Z,1022.75
2022-08-10T01:59:58.635Z,1022.75
2022-08-10T02:00:53.886Z,1022.72
2022-08-10T02:01:53.827Z,1022.75
2022-08-10T02:02:53.806Z,1022.72
2022-08-10T02:04:04.427Z,1022.73
2022-08-10T02:04:53.703Z,1022.73
2022-08-10T02:05:53.664Z,1022.72
2022-08-10T02:06:53.637Z,1022.72
2022-08-10T02:07:53.599Z,1022.71
2022-08-10T02:08:55.869Z,1022.70
2022-08-10T02:09:53.497Z,1022.70
2022-08-10T02:10:53.472Z,1022.67
2022-08-10T02:12:06.705Z,1022.71
2022-08-10T02:12:53.367Z,1022.66
2022-08-10T02:13:53.336Z,1022.64
2022-08-10T02:14:53.304Z,1022.64
2022-08-10T02:16:01.336Z,1022.53
2022-08-10T02:16:53.204Z,1022.60
2022-08-10T02:17:59.385Z,1022.66
2022-08-10T02:18:53.117Z,1022.62
2022-08-10T02:19:53.102Z,1022.64
2022-08-10T02:20:53.063Z,1022.62
2022-08-10T02:22:35.016Z,1022.61
2022-08-10T02:22:53.223Z,1022.63
2022-08-10T02:23:53.036Z,1022.64
2022-08-10T02:24:52.879Z,1022.59
2022-08-10T02:25:52.847Z,1022.56
2022-08-10T02:26:59.831Z,1022.65
2022-08-10T02:27:52.745Z,1022.60
2022-08-10T02:28:52.702Z,1022.66
2022-08-10T02:29:52.665Z,1022.64
2022-08-10T02:30:52.620Z,1022.61
2022-08-10T02:31:52.601Z,1022.63
2022-08-10T02:32:52.738Z,1022.59
2022-08-10T02:33:57.312Z,1022.59
2022-08-10T02:34:52.452Z,1022.58
2022-08-10T02:35:55.039Z,1022.61
2022-08-10T02:36:52.695Z,1022.63
2022-08-10T02:37:52.331Z,1022.61
2022-08-10T02:38:59.062Z,1022.61
2022-08-10T02:39:52.242Z,1022.68
2022-08-10T02:45:01.233Z,1022.66
2022-08-10T02:45:02.056Z,1022.70
2022-08-10T02:45:13.974Z,1022.66
2022-08-10T02:45:13.974Z,1022.66
2022-08-10T02:45:25.559Z,1022.68
2022-08-10T02:45:51.991Z,1022.71
2022-08-10T02:46:51.953Z,1022.70
2022-08-10T02:47:52.708Z,1022.65
2022-08-10T02:48:51.862Z,1022.69
2022-08-10T02:49:51.825Z,1022.70
2022-08-10T02:50:51.775Z,1022.66
2022-08-10T02:52:06.781Z,1022.72
2022-08-10T02:52:51.705Z,1022.68
2022-08-10T02:53:56.976Z,1022.73
2022-08-10T02:54:51.704Z,1022.71
2022-08-10T02:55:51.574Z,1022.71
2022-08-10T02:56:51.535Z,1022.74
2022-08-10T02:58:16.798Z,1022.71
2022-08-10T02:58:51.445Z,1022.69
2022-08-10T02:59:51.427Z,1022.66
2022-08-10T03:00:51.450Z,1022.69
2022-08-10T03:01:51.324Z,1022.69
2022-08-10T03:02:51.275Z,1022.70
2022-08-10T03:03:51.241Z,1022.67
2022-08-10T03:04:55.830Z,1022.68
2022-08-10T03:05:51.149Z,1022.68
2022-08-10T03:06:51.105Z,1022.58
2022-08-10T03:07:51.071Z,1022.66
2022-08-10T03:08:51.025Z,1022.66
2022-08-10T03:09:50.993Z,1022.66
2022-08-10T03:10:50.942Z,1022.66
2022-08-10T03:12:37.293Z,1022.66
2022-08-10T03:12:51.237Z,1022.67
2022-08-10T03:13:59.764Z,1022.69
2022-08-10T03:14:50.773Z,1022.71
2022-08-10T03:15:50.761Z,1022.71
2022-08-10T03:16:50.691Z,1022.70
2022-08-10T03:17:57.579Z,1022.70
2022-08-10T03:18:50.614Z,1022.70
2022-08-10T03:20:34.132Z,1022.70
2022-08-10T03:20:50.523Z,1022.66
2022-08-10T03:21:50.481Z,1022.70
2022-08-10T03:22:50.434Z,1022.68
2022-08-10T03:23:50.405Z,1022.67
2022-08-10T03:24:50.352Z,1022.69
2022-08-10T03:25:52.948Z,1022.67
2022-08-10T03:26:50.268Z,1022.69
2022-08-10T03:27:50.251Z,1022.68
2022-08-10T03:28:50.186Z,1022.66
2022-08-10T03:30:31.779Z,1022.74
2022-08-10T03:30:50.109Z,1022.72
2022-08-10T03:32:50.021Z,1022.70
2022-08-10T03:33:49.994Z,1022.69
2022-08-10T03:34:49.932Z,1022.70
2022-08-10T03:36:43.071Z,1022.72
2022-08-10T03:36:49.853Z,1022.72
2022-08-10T03:37:49.810Z,1022.71
2022-08-10T06:19:37.608Z,1022.85
2022-08-10T06:20:37.233Z,1022.86
2022-08-10T06:21:37.190Z,1022.87
2022-08-10T06:22:37.243Z,1022.79
2022-08-10T06:23:37.299Z,1022.78
2022-08-10T06:24:37.054Z,1022.82
2022-08-10T06:26:36.967Z,1022.83
2022-08-10T06:27:36.926Z,1022.83
2022-08-10T06:28:36.885Z,1022.86
2022-08-10T06:29:36.848Z,1022.86
2022-08-10T06:30:36.801Z,1022.83
2022-08-10T06:31:48.321Z,1022.86
2022-08-10T06:32:36.876Z,1022.84
2022-08-10T06:33:36.680Z,1022.85
2022-08-10T06:34:36.628Z,1022.86
2022-08-10T06:35:36.600Z,1022.83
2022-08-10T06:36:36.542Z,1022.85
2022-08-10T06:37:36.501Z,1022.87
2022-08-10T06:38:36.463Z,1022.82
2022-08-10T06:39:37.063Z,1022.85
2022-08-10T06:40:36.380Z,1022.84
2022-08-10T06:42:14.617Z,1022.85
2022-08-10T06:42:36.520Z,1022.86
2022-08-10T06:43:36.254Z,1022.90
2022-08-10T06:44:36.215Z,1022.93
2022-08-10T06:45:36.167Z,1022.89
2022-08-10T06:46:36.132Z,1022.87
2022-08-10T06:47:36.085Z,1022.94
2022-08-10T06:48:36.067Z,1022.92
2022-08-10T06:49:36.011Z,1022.92
2022-08-10T06:50:44.867Z,1022.93
2022-08-10T06:51:35.920Z,1022.89
2022-08-10T06:52:35.978Z,1022.95
2022-08-10T06:53:52.809Z,1022.94
2022-08-10T06:54:35.818Z,1022.94
2022-08-10T06:55:49.989Z,1022.94
2022-08-10T06:56:39.843Z,1022.96
2022-08-10T06:57:35.671Z,1022.89
2022-08-10T06:58:35.628Z,1022.94
2022-08-10T06:59:37.013Z,1022.92
2022-08-10T07:00:35.609Z,1022.94
2022-08-10T07:01:35.503Z,1022.96
2022-08-10T07:02:35.704Z,1022.91
2022-08-10T07:03:35.425Z,1022.95
2022-08-10T07:04:35.388Z,1022.96
2022-08-10T07:05:35.343Z,1022.97
2022-08-10T07:06:35.298Z,1022.95
2022-08-10T07:08:35.224Z,1022.98
2022-08-10T07:09:35.181Z,1022.92
2022-08-10T07:10:45.644Z,1022.89
2022-08-10T07:11:35.101Z,1022.89
2022-08-10T07:12:35.212Z,1022.90
2022-08-10T07:14:14.579Z,1022.88
2022-08-10T07:14:34.968Z,1022.89
2022-08-10T07:16:00.304Z,1022.90
2022-08-10T07:16:34.911Z,1022.90
2022-08-10T07:17:38.803Z,1022.90
2022-08-10T07:18:35.139Z,1022.93
2022-08-10T07:19:34.780Z,1022.88
2022-08-10T07:20:34.728Z,1022.93
2022-08-10T07:21:34.682Z,1022.90
2022-08-10T07:23:01.306Z,1022.87
2022-08-10T07:23:57.016Z,1022.91
2022-08-10T07:24:34.559Z,1022.94
2022-08-10T07:25:34.530Z,1022.93
2022-08-10T07:26:34.481Z,1022.94
2022-08-10T07:27:40.709Z,1022.94
2022-08-10T07:28:34.403Z,1022.94
2022-08-10T07:29:53.905Z,1022.91
2022-08-10T07:30:34.315Z,1022.93
2022-08-10T07:31:57.136Z,1022.93
2022-08-10T07:32:34.399Z,1022.94
2022-08-10T07:33:34.204Z,1022.97
2022-08-10T07:34:34.154Z,1023.00
2022-08-10T07:35:41.901Z,1022.97
2022-08-10T07:36:34.067Z,1023.01
2022-08-10T07:37:34.024Z,1023.00
2022-08-10T07:38:33.984Z,1023.02
2022-08-10T07:40:02.670Z,1023.03
2022-08-10T07:40:34.026Z,1023.00
2022-08-10T07:41:33.869Z,1023.02
2022-08-10T07:42:33.841Z,1023.04
2022-08-10T07:43:33.857Z,1023.05
2022-08-10T07:44:33.772Z,1023.05
2022-08-10T07:45:33.794Z,1023.03
2022-08-10T07:46:33.661Z,1023.02
2022-08-10T07:47:52.322Z,1023.01
2022-08-10T07:48:33.586Z,1023.02
2022-08-10T07:49:33.535Z,1023.02
2022-08-10T07:50:35.325Z,1023.06
2022-08-10T07:51:33.547Z,1023.02
2022-08-10T07:52:33.429Z,1023.08
2022-08-10T07:53:33.374Z,1023.11
2022-08-10T07:54:33.342Z,1023.09
2022-08-10T07:56:04.295Z,1023.11
2022-08-10T07:56:48.437Z,1023.14
2022-08-10T07:57:36.848Z,1023.09
2022-08-10T07:58:33.178Z,1023.11
2022-08-10T07:59:33.133Z,1023.14
2022-08-10T08:00:33.427Z,1023.11
2022-08-10T08:01:33.108Z,1023.09
2022-08-10T08:02:33.297Z,1023.11
2022-08-10T08:03:32.973Z,1023.10
2022-08-10T08:04:32.939Z,1023.10
2022-08-10T08:05:58.485Z,1023.09
2022-08-10T08:34:50.278Z,1023.02
2022-08-10T08:35:50.213Z,1023.00
2022-08-10T08:36:50.174Z,1023.01
2022-08-10T08:38:32.408Z,1023.00
2022-08-10T08:38:50.155Z,1023.03
2022-08-10T08:39:50.176Z,1023.02
2022-08-10T08:46:28.292Z,1022.98
2022-08-10T08:48:04.536Z,1022.92
2022-08-10T08:48:29.019Z,1022.90
2022-08-10T08:50:41.621Z,1022.94
2022-08-10T08:52:09.736Z,1022.89
2022-08-10T08:56:06.964Z,1022.93
2022-08-10T09:00:14.828Z,1022.88
2022-08-10T09:11:18.255Z,1022.88
2022-08-10T09:13:26.639Z,1022.84
2022-08-10T09:15:41.494Z,1022.85
2022-08-10T09:16:39.973Z,1022.82
2022-08-10T09:17:39.934Z,1022.83
2022-08-10T09:18:39.900Z,1022.84
2022-08-10T09:22:36.691Z,1022.79
2022-08-10T09:24:05.400Z,1022.73
2022-08-10T09:25:29.838Z,1022.73
2022-08-10T09:26:30.198Z,1022.73
2022-08-10T09:27:29.756Z,1022.72
2022-08-10T09:28:29.715Z,1022.73
2022-08-10T09:29:29.677Z,1022.69
2022-08-10T09:30:31.595Z,1022.72
2022-08-10T09:31:29.625Z,1022.71
2022-08-10T09:36:15.121Z,1022.72
2022-08-10T09:36:21.415Z,1022.66
2022-08-10T09:36:24.060Z,1022.71
2022-08-10T09:36:25.146Z,1022.68
2022-08-10T09:36:32.289Z,1022.69
2022-08-10T09:38:29.337Z,1022.63
2022-08-10T09:40:56.202Z,1022.68
2022-08-10T09:41:00.723Z,1022.65
2022-08-10T09:41:29.252Z,1022.63
2022-08-10T09:43:25.624Z,1022.63
2022-08-10T09:44:12.526Z,1022.64
2022-08-10T09:45:12.484Z,1022.62
2022-08-10T09:46:12.444Z,1022.67
2022-08-10T09:47:12.411Z,1022.65
2022-08-10T09:48:12.371Z,1022.64
2022-08-10T09:49:12.331Z,1022.64
2022-08-10T09:50:12.291Z,1022.59
2022-08-10T09:51:44.948Z,1022.60
2022-08-10T10:00:32.267Z,1022.51
2022-08-10T10:02:02.750Z,1022.49
2022-08-10T10:02:31.826Z,1022.47
2022-08-10T10:03:31.831Z,1022.43
2022-08-10T10:04:31.768Z,1022.46
2022-08-10T10:05:31.709Z,1022.40
2022-08-10T10:06:31.677Z,1022.40
2022-08-10T10:07:31.643Z,1022.40
2022-08-10T10:08:31.605Z,1022.40
2022-08-10T10:09:31.764Z,1022.37
2022-08-10T10:10:31.526Z,1022.38
2022-08-10T10:11:31.483Z,1022.44
2022-08-10T10:12:31.449Z,1022.36
2022-08-10T10:13:50.618Z,1022.32
2022-08-10T10:14:31.377Z,1022.36
2022-08-10T10:15:31.338Z,1022.34
2022-08-10T10:16:31.619Z,1022.29
2022-08-10T10:17:31.256Z,1022.32
2022-08-10T10:19:31.186Z,1022.25
2022-08-10T10:21:55.340Z,1022.21
2022-08-10T10:22:31.068Z,1022.23
2022-08-10T10:23:31.025Z,1022.22
2022-08-10T10:24:30.988Z,1022.23
2022-08-10T10:25:50.139Z,1022.23
2022-08-10T10:26:30.916Z,1022.26
2022-08-10T10:27:30.896Z,1022.24
2022-08-10T10:28:57.477Z,1022.26
2022-08-10T10:29:57.264Z,1022.24
2022-08-10T10:30:30.794Z,1022.18
2022-08-10T10:31:30.731Z,1022.19
2022-08-10T10:32:32.117Z,1022.16
2022-08-10T10:33:30.677Z,1022.22
2022-08-10T10:34:30.628Z,1022.20
2022-08-10T10:35:30.573Z,1022.22
2022-08-10T10:36:30.578Z,1022.19
2022-08-10T10:38:30.463Z,1022.12
2022-08-10T10:39:30.529Z,1022.15
2022-08-10T10:40:30.399Z,1022.18
2022-08-10T10:41:30.368Z,1022.15
2022-08-10T10:42:44.714Z,1022.16
2022-08-10T10:43:30.302Z,1022.19
2022-08-10T10:44:30.667Z,1022.14
2022-08-10T10:45:30.204Z,1022.20
2022-08-10T10:46:30.172Z,1022.13
2022-08-10T10:47:30.166Z,1022.09
2022-08-10T10:48:30.100Z,1022.15
2022-08-10T10:49:30.063Z,1022.10
2022-08-10T10:51:30.000Z,1022.12
2022-08-10T10:52:29.948Z,1022.12
2022-08-10T10:53:29.925Z,1022.07
2022-08-10T10:54:29.874Z,1022.04
2022-08-10T10:55:29.830Z,1022.04
2022-08-10T10:56:29.804Z,1022.01
2022-08-10T10:57:59.534Z,1021.98
2022-08-10T10:58:29.733Z,1021.93
2022-08-10T10:59:56.437Z,1021.94
2022-08-10T11:00:29.670Z,1021.95
2022-08-10T11:01:29.649Z,1022.00
2022-08-10T11:02:29.578Z,1021.97
2022-08-10T11:03:29.539Z,1021.99
2022-08-10T11:04:29.503Z,1022.00
2022-08-10T11:05:29.693Z,1021.96
2022-08-10T11:06:39.735Z,1022.00
2022-08-10T11:07:37.548Z,1021.93
2022-08-10T11:08:29.731Z,1021.88
2022-08-10T11:10:05.306Z,1021.81
2022-08-10T11:10:33.170Z,1021.84
2022-08-10T11:12:01.957Z,1021.87
2022-08-10T11:12:29.210Z,1021.79
2022-08-10T11:14:27.629Z,1021.85
2022-08-10T11:14:29.764Z,1021.84
2022-08-10T11:16:29.062Z,1021.87
2022-08-10T11:17:29.025Z,1021.83
2022-08-10T11:20:02.899Z,1021.83
2022-08-10T11:21:28.894Z,1021.79
2022-08-10T11:22:28.856Z,1021.85
2022-08-10T11:23:28.809Z,1021.81
2022-08-10T11:50:02.419Z,1021.56
2022-08-10T11:51:02.376Z,1021.62
2022-08-10T11:52:02.341Z,1021.63
2022-08-10T11:53:45.689Z,1021.65
2022-08-10T11:54:45.649Z,1021.61
2022-08-10T11:55:45.616Z,1021.63
2022-08-10T11:56:45.577Z,1021.62
2022-08-10T11:57:54.250Z,1021.51
2022-08-10T11:58:45.504Z,1021.56
2022-08-10T11:59:45.467Z,1021.60
2022-08-10T12:00:45.430Z,1021.55
2022-08-10T12:01:45.414Z,1021.56
2022-08-10T12:02:45.420Z,1021.56
2022-08-10T12:03:45.329Z,1021.54
2022-08-10T12:04:45.292Z,1021.55
2022-08-10T12:05:53.838Z,1021.51
2022-08-10T12:10:02.499Z,1021.48
2022-08-10T12:10:05.510Z,1021.50
2022-08-10T12:10:09.881Z,1021.42
2022-08-10T12:10:45.072Z,1021.45
2022-08-10T12:11:45.039Z,1021.51
2022-08-10T12:12:45.000Z,1021.49
2022-08-10T12:14:04.430Z,1021.58
2022-08-10T12:14:44.928Z,1021.53
2022-08-10T12:15:44.895Z,1021.48
2022-08-10T12:16:44.855Z,1021.47
2022-08-10T12:17:44.820Z,1021.47
2022-08-10T12:18:44.782Z,1021.45
2022-08-10T12:19:59.693Z,1021.45
2022-08-10T12:20:44.711Z,1021.41
2022-08-10T12:21:44.677Z,1021.38
2022-08-10T12:22:44.639Z,1021.40
2022-08-10T12:23:44.602Z,1021.42
2022-08-10T12:24:44.566Z,1021.41
2022-08-10T12:25:56.721Z,1021.39
2022-08-10T12:26:44.493Z,1021.37
2022-08-10T12:27:44.460Z,1021.34
2022-08-10T12:28:50.750Z,1021.31
2022-08-10T12:29:44.389Z,1021.36
2022-08-10T12:30:44.349Z,1021.35
2022-08-10T12:31:44.337Z,1021.36
2022-08-10T12:32:44.363Z,1021.39
2022-08-10T12:34:02.173Z,1021.39
2022-08-10T12:34:48.627Z,1021.29
2022-08-10T12:36:01.822Z,1021.29
2022-08-10T12:36:44.158Z,1021.28
2022-08-10T12:37:44.108Z,1021.31
2022-08-10T12:40:24.014Z,1021.22
2022-08-10T12:41:00.107Z,1021.21
2022-08-10T12:43:02.438Z,1021.19
2022-08-10T12:45:06.479Z,1021.18
2022-08-10T12:47:13.938Z,1021.11
2022-08-10T12:48:54.786Z,1021.13
2022-08-10T12:50:30.967Z,1021.04
2022-08-10T12:53:04.844Z,1021.04
2022-08-10T12:54:54.559Z,1021.02
2022-08-10T12:55:54.528Z,1021.04
2022-08-10T12:56:54.695Z,1020.97
2022-08-10T12:59:02.883Z,1020.98
2022-08-10T13:00:02.984Z,1020.97
2022-08-10T13:01:17.576Z,1020.98
2022-08-10T13:18:46.272Z,1020.76
2022-08-10T13:19:54.614Z,1020.66
2022-08-10T13:20:45.956Z,1020.69
2022-08-10T13:21:45.917Z,1020.82
2022-08-10T13:22:45.685Z,1020.72
2022-08-10T13:32:45.488Z,1020.61
2022-08-10T13:34:40.943Z,1020.54
2022-08-10T13:46:44.710Z,1020.45
2022-08-10T13:47:49.007Z,1020.42
2022-08-10T13:48:44.573Z,1020.38
2022-08-10T13:49:44.523Z,1020.38
2022-08-10T13:50:44.707Z,1020.40
2022-08-10T13:51:56.636Z,1020.31
2022-08-10T13:52:44.441Z,1020.34
2022-08-10T13:53:44.375Z,1020.36
2022-08-10T13:54:44.355Z,1020.29
2022-08-10T13:55:48.750Z,1020.27
2022-08-10T13:56:44.260Z,1020.34
2022-08-10T13:57:47.591Z,1020.31
2022-08-10T13:58:44.213Z,1020.28
2022-08-10T14:00:37.629Z,1020.29
2022-08-10T14:00:44.137Z,1020.27
2022-08-10T14:01:44.168Z,1020.39
2022-08-10T14:02:44.046Z,1020.39
2022-08-10T14:03:44.043Z,1020.34
2022-08-10T14:04:43.976Z,1020.35
2022-08-10T14:05:44.261Z,1020.36
2022-08-10T14:06:43.901Z,1020.32
2022-08-10T14:08:00.334Z,1020.27
2022-08-10T14:08:43.848Z,1020.25
2022-08-10T14:09:43.816Z,1020.22
2022-08-10T14:11:02.275Z,1020.17
2022-08-10T14:11:43.713Z,1020.15
2022-08-10T14:12:43.940Z,1020.22
2022-08-10T14:13:43.970Z,1020.17
2022-08-10T14:14:43.602Z,1020.15
2022-08-10T14:15:43.897Z,1020.16
2022-08-10T14:16:43.534Z,1020.15
2022-08-10T14:17:45.045Z,1020.15
2022-08-10T14:18:43.475Z,1020.14
2022-08-10T14:19:43.822Z,1020.13
2022-08-10T14:20:43.379Z,1020.17
2022-08-10T14:21:43.360Z,1020.10
2022-08-10T14:22:43.438Z,1020.12
2022-08-10T14:23:48.512Z,1020.08
2022-08-10T14:24:43.253Z,1020.08
2022-08-10T14:25:43.195Z,1020.10
2022-08-10T14:26:43.184Z,1020.05
2022-08-10T14:28:02.975Z,1020.05
2022-08-10T14:28:43.079Z,1020.16
2022-08-10T14:29:43.060Z,1020.07
2022-08-10T14:30:43.008Z,1020.01
2022-08-10T14:32:01.677Z,1020.04
2022-08-10T14:32:42.960Z,1019.97
2022-08-10T14:33:42.917Z,1020.00
2022-08-10T14:36:17.454Z,1020.00
2022-08-10T14:36:23.296Z,1019.94
2022-08-10T14:36:43.116Z,1020.03
2022-08-10T14:37:43.122Z,1020.05
2022-08-10T14:38:42.717Z,1020.06
2022-08-10T14:39:42.825Z,1020.03
2022-08-10T14:40:42.642Z,1020.07
2022-08-10T14:42:02.717Z,1020.02
2022-08-10T14:42:42.592Z,1020.00
2022-08-10T14:43:42.549Z,1020.01
2022-08-10T14:44:42.485Z,1019.97
2022-08-10T14:45:42.496Z,1019.94
2022-08-10T14:46:42.454Z,1019.95
2022-08-10T14:47:53.064Z,1019.99
2022-08-10T14:48:42.690Z,1019.97
2022-08-10T14:49:58.139Z,1019.99
2022-08-10T14:51:44.284Z,1019.90
2022-08-10T14:52:44.152Z,1019.93
2022-08-10T14:53:42.169Z,1019.87
2022-08-10T14:54:42.133Z,1019.86
2022-08-10T14:55:58.699Z,1019.83
2022-08-10T14:56:42.372Z,1019.81
2022-08-10T14:58:17.059Z,1019.82
2022-08-10T14:58:59.004Z,1019.84
2022-08-10T15:00:21.016Z,1019.79
2022-08-10T15:00:43.057Z,1019.84
2022-08-10T15:02:38.307Z,1019.80
2022-08-10T15:02:53.178Z,1019.82
2022-08-10T15:03:59.145Z,1019.81
2022-08-10T15:04:41.736Z,1019.81
2022-08-10T15:05:41.961Z,1019.80
2022-08-10T15:06:41.880Z,1019.72
2022-08-10T15:07:41.620Z,1019.77
2022-08-10T15:08:41.617Z,1019.78
2022-08-10T15:10:01.529Z,1019.72
2022-08-10T15:10:41.538Z,1019.80
2022-08-10T15:12:13.274Z,1019.68
2022-08-10T15:12:41.446Z,1019.69
2022-08-10T15:13:41.416Z,1019.71
2022-08-10T15:14:44.769Z,1019.72
2022-08-10T15:16:09.376Z,1019.72
2022-08-10T15:16:41.291Z,1019.68
2022-08-10T15:17:41.559Z,1019.65
2022-08-10T15:18:41.232Z,1019.64
2022-08-10T15:20:41.158Z,1019.61
2022-08-10T15:21:42.701Z,1019.60
2022-08-10T15:22:41.083Z,1019.57
2022-08-10T15:24:40.983Z,1019.61
2022-08-10T15:25:40.956Z,1019.62
2022-08-10T15:26:40.955Z,1019.55
2022-08-10T15:27:53.460Z,1019.57
2022-08-10T15:29:22.247Z,1019.53
2022-08-10T15:30:41.375Z,1019.54
2022-08-10T15:31:41.067Z,1019.58
2022-08-10T15:32:40.691Z,1019.57
2022-08-10T15:33:57.830Z,1019.59
2022-08-10T15:36:40.568Z,1019.52
2022-08-10T15:37:41.436Z,1019.55
2022-08-10T15:38:40.480Z,1019.49
2022-08-10T15:40:25.914Z,1019.47
2022-08-10T15:40:49.644Z,1019.58
2022-08-10T15:41:58.077Z,1019.61
2022-08-10T15:42:40.315Z,1019.58
2022-08-10T15:43:44.641Z,1019.60
2022-08-10T15:45:40.215Z,1019.55
2022-08-10T15:47:45.012Z,1019.56
2022-08-10T15:48:40.089Z,1019.56
2022-08-10T15:49:45.089Z,1019.52
2022-08-10T15:50:40.799Z,1019.56
2022-08-10T15:51:53.823Z,1019.52
2022-08-10T15:53:49.196Z,1019.53
2022-08-10T15:54:39.892Z,1019.49
2022-08-10T15:56:39.784Z,1019.45
2022-08-10T15:57:39.749Z,1019.43
2022-08-10T15:58:40.773Z,1019.41
2022-08-10T15:59:39.699Z,1019.41
2022-08-10T16:00:39.655Z,1019.43
2022-08-10T16:02:14.856Z,1019.44
2022-08-10T16:02:39.626Z,1019.46
2022-08-10T16:03:39.530Z,1019.43
2022-08-10T16:04:39.502Z,1019.46
2022-08-10T16:05:40.807Z,1019.47
2022-08-10T16:06:39.409Z,1019.42
2022-08-10T16:08:55.712Z,1019.42
2022-08-10T16:10:24.841Z,1019.43
2022-08-10T16:10:39.339Z,1019.40
2022-08-10T16:11:39.253Z,1019.44
2022-08-10T16:12:39.222Z,1019.38
2022-08-10T16:13:59.942Z,1019.43
2022-08-10T16:14:39.120Z,1019.41
2022-08-10T16:15:39.078Z,1019.50
2022-08-10T16:16:39.056Z,1019.45
2022-08-10T16:17:54.827Z,1019.41
2022-08-10T16:18:38.974Z,1019.43
2022-08-10T16:19:38.951Z,1019.45
2022-08-10T16:20:53.237Z,1019.39
2022-08-10T16:21:38.866Z,1019.43
2022-08-10T16:22:38.863Z,1019.44
2022-08-10T16:23:38.804Z,1019.43
2022-08-10T16:24:38.755Z,1019.38
2022-08-10T16:25:48.167Z,1019.38
2022-08-10T16:27:38.962Z,1019.45
2022-08-10T16:28:38.619Z,1019.39
2022-08-10T16:29:55.695Z,1019.36
2022-08-10T16:30:38.845Z,1019.37
2022-08-10T16:31:38.511Z,1019.36
2022-08-10T16:32:38.449Z,1019.32
2022-08-10T16:33:53.815Z,1019.35
2022-08-10T16:35:38.335Z,1019.38
2022-08-10T16:36:38.319Z,1019.36
2022-08-10T16:37:57.027Z,1019.38
2022-08-10T16:38:38.223Z,1019.44
2022-08-10T16:39:58.837Z,1019.38
2022-08-10T16:40:38.210Z,1019.43
2022-08-10T16:42:03.714Z,1019.48
2022-08-10T16:42:43.003Z,1019.44
2022-08-10T16:43:38.248Z,1019.49
2022-08-10T16:44:38.003Z,1019.42
2022-08-10T16:45:37.989Z,1019.44
2022-08-10T16:46:37.935Z,1019.47
2022-08-10T16:47:38.043Z,1019.48
2022-08-10T16:48:50.245Z,1019.42
2022-08-10T16:50:38.006Z,1019.39
2022-08-10T16:51:37.751Z,1019.43
2022-08-10T16:53:37.676Z,1019.37
2022-08-10T16:54:37.641Z,1019.46
2022-08-10T16:55:48.342Z,1019.41
2022-08-10T16:56:48.561Z,1019.36
2022-08-10T16:57:37.749Z,1019.38
2022-08-10T17:00:22.536Z,1019.36
2022-08-10T17:01:21.865Z,1019.38
2022-08-10T17:06:11.170Z,1019.47
2022-08-10T17:07:18.378Z,1019.30
2022-08-10T17:09:04.356Z,1019.33
2022-08-10T17:10:45.096Z,1019.34
2022-08-10T17:11:45.066Z,1019.34
2022-08-10T17:12:45.034Z,1019.31
2022-08-10T17:13:45.006Z,1019.29
2022-08-10T17:14:44.974Z,1019.24
2022-08-10T17:15:44.939Z,1019.28
2022-08-10T17:16:44.910Z,1019.25
2022-08-10T17:17:44.878Z,1019.29
2022-08-10T17:18:46.787Z,1019.22
2022-08-10T17:19:44.820Z,1019.20
2022-08-10T17:20:44.790Z,1019.21
2022-08-10T17:21:51.806Z,1019.18
2022-08-10T17:22:44.727Z,1019.19
2022-08-10T17:23:44.694Z,1019.15
2022-08-10T17:24:44.667Z,1019.16
2022-08-10T17:25:48.381Z,1019.16
2022-08-10T17:26:44.600Z,1019.17
2022-08-10T17:28:24.395Z,1019.16
2022-08-10T17:28:44.536Z,1019.16
2022-08-10T17:29:57.817Z,1019.14
2022-08-10T17:31:53.305Z,1019.14
2022-08-10T17:32:27.827Z,1019.15
2022-08-10T17:33:27.797Z,1019.13
2022-08-10T17:34:27.761Z,1019.05
2022-08-10T17:35:27.725Z,1019.10
2022-08-10T17:36:27.691Z,1019.12
2022-08-10T17:37:27.713Z,1019.09
2022-08-10T17:38:27.623Z,1019.08
2022-08-10T17:39:27.621Z,1019.06
2022-08-10T17:40:27.550Z,1019.07
2022-08-10T17:41:27.517Z,1019.09